North Platte Regional Airport Lee Bird Field
KLBF : now visible

Aeroporto :











RITROVATECI SU...

 
LOGIN :

Iscrizione | Disclaimer

   EN    FR    IT 

 









Sommario :    VFR   VFR Marginale   IFR   IFR Intensivo   IFR Molto Intensivo
Visibilità : 
Base nubi : 
>= 8 km
>= 3000ft
5 / 8 km
1000 / 3000 ft
1500m / 5 km
500 / 1000 ft
800 / 1500m
200 / 500 ft
< 800m
< 200 ft
Simboli :   Temporali  Nebbia  Neve Forte  Precipitazioni Forti  Vento > 20 kt






- Altitudine del aeroporto : 2777 ft
- Codice IATA : LBF


KLBF - North Platte Regional Lee Bird Field

ULTIMO METAR :
  • 111753Z AUTO 14008KT 10SM CLR 31/18 A2995 RMK AO2 SLP113 T03060183 10306 20161 58017

METARs OBSOLETI :
  • 111653Z AUTO 17009KT 10SM CLR 28/18 A2997 RMK AO2 SLP122 T02780178
  • 111553Z AUTO 18010KT 10SM CLR 26/18 A2999 RMK AO2 SLP129 T02560178

TAF KLBF
Valido dal 11 a 18 ore il 12 a 18 ore UTC


111724Z 1118/1218 15012KT P6SM SCT250
FM120200 08009KT P6SM SCT250
FM120500 13007KT P6SM SCT250 WS020/18035KT
FM121700 16007KT P6SM FEW200
FIR KZDV / America del Nord



MetMap, La meteo Aeronautica in un colpo d'occhio ! - Copyright ORBIFLY Dicembre 2007 - Disclaimer

ORBIFLY MET'MAP TEAM :

Programmazione e sviluppo : Alexandra Zaïnal
Concezione : Baudouin d'Aumeries
Aiuto per la programmazione : Marc-Olivier Méhu
Supporto tecnico e logistico : Manuel Goepfert
Aiuto per la traduzione : Arnaldo La Scala

Contatto : metmap@orbifly.com




FONTI E CREDITI :

   NOAA       Earth
Advisory